Nikiski, AK

11:43 AM AKDT on August 27, 2015 (GMT -0800)
McGahan | | Change Station
CLOSE
Current Station
Personal Weather Station
Location: Nikiski, AK
Elevation: 159 ft
Nearby Weather Stations

Elev 159 ft 60.73 °N, 151.30 °W | Updated 3 seconds ago

Clear
Clear
61.2 °F
Feels Like 61.2 °F
N
2.3
Wind Variable Wind from NNE
Gusts 2.3 mph

Today
High -- | Low -- °F
--% Chance of Precip.
Yesterday
High -- | Low -- °F
Precip. -- in
6:46 AM 9:26 PM
Waxing Gibbous, 94% visible
Pressure 29.73 in
Visibility 10.0 miles
Clouds Clear
Dew Point 51 °F
Humidity 69%
Rainfall 0.00 in
Snow Depth Not available.
UV 0.0 out of 12
Pollen Not available.
Air Quality Not available.
Flu Activity Not available.
METAR PAEN 271853Z 28009KT 10SM CLR 17/05 A2973 RMK AO2 SLP068 T01720050
Pressure 29.73 in
Visibility 10.0 miles
Clouds Clear
Dew Point 51 °F
Humidity 69%
Rainfall 0.00 in
Snow Depth Not available.
UV 0.0 out of 12
Pollen Not available.
Air Quality Not available.
Flu Activity Not available.
METAR PAEN 271853Z 28009KT 10SM CLR 17/05 A2973 RMK AO2 SLP068 T01720050

10-Day Weather Forecast

×

Almanac

Astronomy

Aug. 27, 2015 Rise Set
Actual Time
Civil Twilight
Nautical Twilight
Astronomical Twilight
Moon
Length of Visible Light
Length of Day
Tomorrow will be .
, % of the Moon is Illuminated

Today's Extremes

State Highs State Lows

Community

WunderPhotos

Upload Photos

1,850,200 photos uploaded!

WunderBlogs® & News

Nearby

Air Quality

  Air Quality AQ Index Pollutant
Not available.

Snow Depth

Station Depth Elevation

Earthquake Activity

City Distance Mag. Time & Date
Minimum magnitude displayed is 2.5.

Coastal Water Temperatures

Place Temperature

Stations

Nearby Weather Stations

Station Location Temp. Windchill Dew Point Humidity Wind Precip. Elev Updated Type